createdAt,value
2022-09-28T00:04:54.869Z,15.32
2022-09-28T00:10:16.671Z,15.85
2022-09-28T00:15:38.484Z,16.75
2022-09-28T00:21:19.914Z,16.13
2022-09-28T00:26:53.664Z,16.83
2022-09-28T00:32:18.830Z,15.73
2022-09-28T00:37:40.890Z,11.00
2022-09-28T00:43:17.769Z,9.13
2022-09-28T00:48:46.197Z,9.52
2022-09-28T00:54:09.540Z,5.78
2022-09-28T00:59:33.591Z,5.28
2022-09-28T01:04:57.957Z,3.42
2022-09-28T01:10:19.764Z,2.67
2022-09-28T01:16:20.459Z,2.88
2022-09-28T01:22:24.312Z,2.92
2022-09-28T01:27:57.443Z,3.92
2022-09-28T01:33:24.880Z,2.70
2022-09-28T01:38:50.976Z,5.05
2022-09-28T01:44:17.441Z,2.63
2022-09-28T01:49:44.792Z,3.00
2022-09-28T01:55:11.973Z,2.45
2022-09-28T02:00:38.303Z,4.07
2022-09-28T02:06:07.647Z,1.60
2022-09-28T02:11:29.548Z,2.97
2022-09-28T02:16:53.602Z,2.13
2022-09-28T02:22:21.877Z,1.63
2022-09-28T02:28:13.605Z,2.78
2022-09-28T02:33:41.827Z,2.95
2022-09-28T02:39:03.709Z,2.75
2022-09-28T02:44:33.607Z,2.72
2022-09-28T02:50:26.293Z,2.00
2022-09-28T02:56:22.884Z,3.08
2022-09-28T03:01:50.513Z,1.30
2022-09-28T03:07:30.495Z,2.13
2022-09-28T03:12:54.632Z,3.22
2022-09-28T03:18:16.855Z,1.92
2022-09-28T03:23:39.369Z,2.60
2022-09-28T03:29:01.148Z,3.05
2022-09-28T03:34:23.001Z,3.17
2022-09-28T03:39:44.775Z,3.95
2022-09-28T03:45:07.200Z,3.75
2022-09-28T03:50:28.989Z,4.72
2022-09-28T03:55:51.441Z,4.10
2022-09-28T04:01:17.251Z,5.05
2022-09-28T04:06:39.692Z,5.37
2022-09-28T04:12:04.194Z,4.70
2022-09-28T04:17:26.436Z,6.97
2022-09-28T04:22:48.238Z,6.82
2022-09-28T04:28:09.994Z,6.68
2022-09-28T04:33:31.788Z,9.98
2022-09-28T04:38:53.783Z,11.55
2022-09-28T04:44:15.614Z,11.80
2022-09-28T04:49:37.453Z,12.52
2022-09-28T04:54:59.196Z,12.82
2022-09-28T05:00:20.939Z,13.63
2022-09-28T05:05:46.965Z,12.30
2022-09-28T05:11:12.290Z,12.20
2022-09-28T05:16:34.136Z,12.10
2022-09-28T05:21:56.261Z,11.95
2022-09-28T05:27:18.021Z,12.27
2022-09-28T05:32:41.205Z,13.48
2022-09-28T05:38:04.311Z,14.00
2022-09-28T05:43:26.173Z,14.88
2022-09-28T05:48:47.965Z,12.00
2022-09-28T05:54:09.913Z,11.20
2022-09-28T05:59:31.651Z,12.48
2022-09-28T06:04:53.426Z,11.32
2022-09-28T06:10:15.171Z,12.88
2022-09-28T06:15:37.173Z,12.55
2022-09-28T06:20:59.131Z,10.90
2022-09-28T06:26:20.905Z,11.75
2022-09-28T06:31:42.685Z,11.80
2022-09-28T06:37:04.588Z,11.32
2022-09-28T06:42:26.334Z,12.50
2022-09-28T06:47:53.089Z,12.35
2022-09-28T06:58:36.889Z,12.50
2022-09-28T07:03:58.632Z,12.10
2022-09-28T07:09:31.803Z,9.43
2022-09-28T07:14:54.739Z,10.45
2022-09-28T07:20:19.352Z,10.35
2022-09-28T07:25:41.688Z,9.90
2022-09-28T07:31:03.620Z,8.60
2022-09-28T07:36:25.533Z,10.15
2022-09-28T07:41:47.343Z,8.45
2022-09-28T07:47:09.199Z,9.32
2022-09-28T07:52:30.983Z,8.18
2022-09-28T07:57:56.857Z,9.55
2022-09-28T08:03:20.682Z,9.00
2022-09-28T08:08:43.904Z,7.45
2022-09-28T08:14:05.730Z,6.68
2022-09-28T08:19:27.941Z,9.25
2022-09-28T08:24:49.844Z,6.18
2022-09-28T08:30:11.827Z,6.00
2022-09-28T08:35:33.759Z,6.47
2022-09-28T08:41:15.483Z,5.93
2022-09-28T08:46:45.429Z,6.50
2022-09-28T08:52:30.215Z,5.20
2022-09-28T08:58:03.346Z,5.97
2022-09-28T09:03:33.927Z,6.78
2022-09-28T09:09:10.853Z,5.57
2022-09-28T09:14:47.716Z,5.20
2022-09-28T09:20:37.584Z,9.55
2022-09-28T09:26:12.282Z,5.97
2022-09-28T09:32:31.433Z,4.85
2022-09-28T09:38:05.937Z,5.10
2022-09-28T09:43:56.054Z,7.90
2022-09-28T09:49:30.810Z,5.57
2022-09-28T09:55:01.937Z,3.92
2022-09-28T10:00:23.882Z,4.65
2022-09-28T10:05:52.493Z,3.40
2022-09-28T10:11:19.017Z,3.63
2022-09-28T10:22:06.041Z,4.80
2022-09-28T10:27:34.325Z,3.30
2022-09-28T10:32:56.100Z,3.10
2022-09-28T10:38:19.116Z,3.05
2022-09-28T10:44:00.501Z,4.15
2022-09-28T10:49:24.847Z,7.55
2022-09-28T10:54:53.353Z,5.60
2022-09-28T11:00:37.606Z,5.18
2022-09-28T11:06:03.061Z,3.47
2022-09-28T11:11:25.088Z,4.15
2022-09-28T11:16:47.010Z,4.68
2022-09-28T11:22:35.749Z,3.75
2022-09-28T11:28:01.463Z,4.35
2022-09-28T11:33:41.110Z,5.57
2022-09-28T11:39:28.525Z,3.92
2022-09-28T11:44:59.110Z,5.40
2022-09-28T11:50:45.880Z,4.70
2022-09-28T11:56:35.929Z,4.28
2022-09-28T12:02:11.070Z,4.53
2022-09-28T12:07:42.484Z,5.10
2022-09-28T12:13:12.129Z,5.15
2022-09-28T12:18:47.197Z,4.63
2022-09-28T12:24:29.309Z,5.00
2022-09-28T12:30:02.127Z,2.65
2022-09-28T12:35:57.914Z,2.33
2022-09-28T12:41:55.654Z,2.77
2022-09-28T12:47:46.345Z,3.78
2022-09-28T12:53:31.430Z,3.88
2022-09-28T12:59:25.173Z,2.25
2022-09-28T13:05:18.755Z,2.30
2022-09-28T13:10:41.337Z,3.78
2022-09-28T13:16:24.737Z,2.92
2022-09-28T13:22:04.680Z,3.47
2022-09-28T13:27:34.611Z,3.67
2022-09-28T13:32:59.057Z,5.13
2022-09-28T13:38:20.890Z,3.05
2022-09-28T13:44:04.566Z,3.58
2022-09-28T13:49:51.267Z,2.45
2022-09-28T13:55:30.445Z,2.15
2022-09-28T14:01:13.094Z,3.15
2022-09-28T14:06:34.955Z,1.83
2022-09-28T14:12:48.471Z,2.55
2022-09-28T14:18:10.244Z,2.35
2022-09-28T14:23:42.004Z,3.63
2022-09-28T14:29:24.574Z,2.15
2022-09-28T14:34:59.704Z,4.10
2022-09-28T14:40:25.754Z,3.13
2022-09-28T14:45:47.738Z,3.97
2022-09-28T14:51:24.999Z,2.90
2022-09-28T14:57:05.957Z,3.53
2022-09-28T15:02:33.182Z,1.70
2022-09-28T15:07:55.546Z,3.85
2022-09-28T15:13:26.371Z,3.75
2022-09-28T15:18:51.159Z,4.22
2022-09-28T15:24:26.643Z,4.07
2022-09-28T15:30:14.731Z,3.15
2022-09-28T15:35:36.581Z,3.15
2022-09-28T15:40:59.325Z,2.47
2022-09-28T15:46:21.288Z,3.97
2022-09-28T15:51:51.230Z,6.53
2022-09-28T15:57:33.539Z,14.77
2022-09-28T16:03:07.729Z,3.10
2022-09-28T16:08:35.431Z,4.75
2022-09-28T16:14:00.360Z,5.63
2022-09-28T16:19:25.087Z,4.35
2022-09-28T16:24:55.483Z,4.43
2022-09-28T16:30:17.357Z,4.32
2022-09-28T16:35:42.240Z,7.30
2022-09-28T16:41:04.641Z,6.82
2022-09-28T16:46:33.836Z,6.47
2022-09-28T16:51:55.718Z,8.52
2022-09-28T16:57:17.569Z,7.45
2022-09-28T17:02:46.729Z,6.65
2022-09-28T17:08:13.914Z,8.50
2022-09-28T17:18:57.352Z,9.63
2022-09-28T17:24:20.948Z,7.03
2022-09-28T17:29:43.067Z,9.65
2022-09-28T17:35:23.716Z,14.05
2022-09-28T17:40:46.701Z,11.10
2022-09-28T17:46:29.937Z,8.05
2022-09-28T17:51:51.902Z,8.98
2022-09-28T17:57:13.711Z,9.27
2022-09-28T18:02:35.560Z,9.82
2022-09-28T18:07:57.421Z,9.52
2022-09-28T18:13:19.265Z,10.27
2022-09-28T18:18:41.111Z,10.35
2022-09-28T18:24:03.028Z,9.80
2022-09-28T18:29:24.955Z,12.20
2022-09-28T18:34:46.884Z,8.48
2022-09-28T18:40:10.547Z,7.72
2022-09-28T18:45:32.414Z,11.20
2022-09-28T18:50:54.243Z,8.38
2022-09-28T18:56:17.978Z,7.97
2022-09-28T19:01:40.096Z,7.03
2022-09-28T19:07:02.001Z,5.68
2022-09-28T19:12:23.823Z,8.50
2022-09-28T19:17:45.583Z,5.82
2022-09-28T19:23:07.349Z,6.10
2022-09-28T19:28:30.047Z,6.03
2022-09-28T19:33:51.856Z,3.78
2022-09-28T19:39:14.809Z,6.03
2022-09-28T19:44:36.571Z,4.07
2022-09-28T19:49:58.331Z,3.92
2022-09-28T19:55:20.088Z,3.08
2022-09-28T20:00:41.845Z,5.13
2022-09-28T20:06:03.761Z,4.50
2022-09-28T20:11:26.006Z,5.68
2022-09-28T20:16:47.766Z,7.05
2022-09-28T20:22:09.540Z,6.97
2022-09-28T20:27:31.277Z,6.15
2022-09-28T20:32:53.101Z,10.40
2022-09-28T20:38:14.927Z,8.35
2022-09-28T20:43:38.017Z,6.28
2022-09-28T20:49:00.066Z,7.70
2022-09-28T20:54:22.043Z,7.35
2022-09-28T20:59:44.768Z,12.68
2022-09-28T21:05:06.969Z,11.90
2022-09-28T21:10:28.722Z,12.25
2022-09-28T21:15:50.963Z,13.77
2022-09-28T21:21:15.206Z,10.95
2022-09-28T21:26:37.099Z,15.98
2022-09-28T21:31:58.868Z,13.75
2022-09-28T21:37:20.658Z,13.73
2022-09-28T21:42:42.422Z,11.80
2022-09-28T21:48:04.640Z,11.57
2022-09-28T21:53:29.041Z,13.40
2022-09-28T21:58:51.194Z,14.75
2022-09-28T22:04:13.103Z,13.95
2022-09-28T22:09:34.862Z,12.93
2022-09-28T22:14:56.723Z,13.98
2022-09-28T22:20:18.716Z,14.05
2022-09-28T22:25:40.485Z,15.02
2022-09-28T22:31:02.321Z,21.05
2022-09-28T22:36:25.222Z,19.85
2022-09-28T22:41:46.983Z,20.33
2022-09-28T22:47:08.850Z,20.70
2022-09-28T22:52:30.648Z,22.33
2022-09-28T22:57:52.428Z,30.30
2022-09-28T23:03:14.366Z,150.27
2022-09-28T23:08:36.450Z,175.25
2022-09-28T23:13:59.643Z,178.38
2022-09-28T23:19:21.388Z,102.25
2022-09-28T23:24:43.146Z,103.75
2022-09-28T23:30:05.367Z,71.55
2022-09-28T23:35:27.136Z,89.00
2022-09-28T23:40:49.019Z,69.15
2022-09-28T23:46:10.859Z,48.55
2022-09-28T23:51:32.674Z,32.78
2022-09-28T23:56:54.440Z,40.63
